Time;durP1;ratioP1;P1;durP2;ratioP2;P2;SDS_P1;SDS_P2;PMS_P1;PMS_P2;Temp;Humidity;BMP_temperature;BMP_pressure;BME280_temperature;BME280_humidity;BME280_pressure;Samples;Min_cycle;Max_cycle;Signal;HPM_P1;HPM_P2
2021/03/28 00:01:59;;;;;;;4.77;1.33;;;;;;;;;;4975250;28;20869;-79
2021/03/28 00:04:25;;;;;;;11.82;1.70;;;;;;;;;;4974701;28;20960;-80
2021/03/28 00:06:55;;;;;;;5.80;1.60;;;;;;;;;;4974790;28;20229;-82
2021/03/28 00:09:27;;;;;;;3.70;1.50;;;;;;;;;;4974603;28;20778;-81
2021/03/28 00:11:53;;;;;;;4.28;2.10;;;;;;;;;;4974859;28;20235;-80
2021/03/28 00:14:38;;;;;;;5.03;2.10;;;;;;;;;;4974567;28;20170;-81
2021/03/28 00:17:06;;;;;;;3.00;1.60;;;;;;;;;;4974494;28;20426;-81
2021/03/28 00:19:33;;;;;;;6.45;2.25;;;;;;;;;;4973955;28;20417;-81
2021/03/28 00:22:01;;;;;;;4.22;1.95;;;;;;;;;;4974489;28;20170;-78
2021/03/28 00:24:27;;;;;;;4.10;1.55;;;;;;;;;;4974379;28;20167;-80
2021/03/28 00:26:59;;;;;;;5.13;2.47;;;;;;;;;;4974265;28;20209;-80
2021/03/28 00:29:26;;;;;;;2.28;2.08;;;;;;;;;;4973754;28;20452;-80
2021/03/28 00:32:01;;;;;;;4.60;3.08;;;;;;;;;;4974154;28;20178;-80
2021/03/28 00:34:29;;;;;;;5.15;1.95;;;;;;;;;;4974013;28;20192;-80
2021/03/28 00:37:15;;;;;;;4.00;2.25;;;;;;;;;;4973904;28;20237;-81
2021/03/28 00:39:44;;;;;;;4.10;2.17;;;;;;;;;;4957421;28;20274;-79
2021/03/28 00:42:29;;;;;;;5.23;2.20;;;;;;;;;;4974277;28;20178;-80
2021/03/28 00:45:15;;;;;;;4.40;1.67;;;;;;;;;;4973611;28;20904;-80
2021/03/28 00:47:43;;;;;;;3.35;1.88;;;;;;;;;;4957566;28;20810;-79
2021/03/28 00:50:15;;;;;;;2.73;1.70;;;;;;;;;;4973806;28;20171;-79
2021/03/28 00:52:51;;;;;;;6.63;2.55;;;;;;;;;;4973860;28;20422;-80
2021/03/28 00:55:20;;;;;;;2.30;2.10;;;;;;;;;;4973900;28;20531;-78
2021/03/28 00:57:57;;;;;;;4.05;1.70;;;;;;;;;;4973867;28;20765;-79
2021/03/28 01:00:47;;;;;;;4.40;1.77;;;;;;;;;;4956325;28;20201;-80
2021/03/28 01:03:33;;;;;;;5.47;2.67;;;;;;;;;;4973585;28;20657;-79
2021/03/28 01:06:02;;;;;;;2.78;1.90;;;;;;;;;;4973711;28;20218;-80
2021/03/28 01:08:28;;;;;;;6.78;1.67;;;;;;;;;;4956309;28;20238;-80
2021/03/28 01:14:19;;;;;;;5.30;1.90;;;;;;;;;;4973603;28;20472;-80
2021/03/28 01:17:01;;;;;;;4.07;1.80;;;;;;;;;;4973449;28;20176;-80
2021/03/28 01:19:39;;;;;;;3.05;1.77;;;;;;;;;;4973400;28;20175;-80
2021/03/28 01:22:05;;;;;;;3.63;2.10;;;;;;;;;;4973493;28;20640;-79
2021/03/28 01:24:34;;;;;;;5.70;1.90;;;;;;;;;;4973514;28;20214;-83
2021/03/28 01:30:07;;;;;;;4.57;2.08;;;;;;;;;;4973643;28;20184;-81
2021/03/28 01:32:39;;;;;;;4.18;1.73;;;;;;;;;;4973269;28;20193;-80
2021/03/28 01:35:16;;;;;;;2.50;1.70;;;;;;;;;;4973134;28;20250;-80
2021/03/28 01:38:01;;;;;;;2.53;2.10;;;;;;;;;;4973514;28;20257;-81
2021/03/28 01:40:30;;;;;;;4.90;2.38;;;;;;;;;;4974533;28;20246;-81
2021/03/28 01:46:02;;;;;;;12.73;2.90;;;;;;;;;;4975710;28;20228;-80
2021/03/28 01:48:38;;;;;;;4.28;1.98;;;;;;;;;;4973019;28;20264;-81
2021/03/28 01:51:22;;;;;;;3.90;2.38;;;;;;;;;;4973219;28;20184;-82
2021/03/28 01:53:57;;;;;;;4.20;2.28;;;;;;;;;;4973180;28;20456;-80
2021/03/28 01:56:38;;;;;;;3.72;2.28;;;;;;;;;;4973128;28;20201;-81
2021/03/28 01:59:19;;;;;;;4.57;1.90;;;;;;;;;;4973208;28;20178;-81
2021/03/28 02:01:51;;;;;;;7.28;1.95;;;;;;;;;;4973270;28;20209;-81
2021/03/28 02:04:24;;;;;;;6.28;2.42;;;;;;;;;;4973366;28;20587;-80
2021/03/28 02:06:53;;;;;;;10.77;2.97;;;;;;;;;;4976883;28;20204;-81
2021/03/28 02:09:37;;;;;;;4.80;1.90;;;;;;;;;;4977724;28;20193;-80
2021/03/28 02:12:15;;;;;;;13.70;2.50;;;;;;;;;;4976994;28;20174;-79
2021/03/28 02:15:11;;;;;;;4.70;2.65;;;;;;;;;;4977136;28;20597;-80
2021/03/28 02:17:40;;;;;;;8.70;2.78;;;;;;;;;;4977186;28;20244;-80
2021/03/28 02:20:26;;;;;;;3.33;2.00;;;;;;;;;;4976766;28;20179;-81
2021/03/28 02:22:59;;;;;;;3.90;1.77;;;;;;;;;;4976708;28;20236;-80
2021/03/28 02:25:38;;;;;;;2.85;2.13;;;;;;;;;;4976881;28;20232;-82
2021/03/28 02:28:07;;;;;;;2.17;1.80;;;;;;;;;;4982077;28;20255;-78
2021/03/28 02:30:43;;;;;;;2.80;2.05;;;;;;;;;;4985028;28;20177;-82
2021/03/28 02:33:13;;;;;;;4.13;2.00;;;;;;;;;;4978920;28;20243;-80
2021/03/28 02:35:48;;;;;;;6.30;1.90;;;;;;;;;;4976164;28;20530;-82
2021/03/28 02:38:17;;;;;;;1.80;1.35;;;;;;;;;;4976567;28;20208;-81
2021/03/28 02:40:43;;;;;;;3.90;1.45;;;;;;;;;;4976301;28;20189;-80
2021/03/28 02:43:13;;;;;;;8.17;1.83;;;;;;;;;;4976207;28;20173;-79
2021/03/28 02:45:43;;;;;;;2.97;1.70;;;;;;;;;;4976211;28;20471;-79
2021/03/28 02:48:18;;;;;;;4.95;2.40;;;;;;;;;;4976164;28;20187;-83
2021/03/28 02:50:59;;;;;;;4.32;1.58;;;;;;;;;;4976381;28;20181;-81
2021/03/28 02:53:38;;;;;;;5.15;1.70;;;;;;;;;;4976224;28;20193;-81
2021/03/28 02:56:08;;;;;;;5.20;1.63;;;;;;;;;;4958832;28;20663;-81
2021/03/28 02:59:12;;;;;;;4.00;2.10;;;;;;;;;;4976210;28;20174;-79
2021/03/28 03:01:44;;;;;;;3.83;2.03;;;;;;;;;;4879054;29;20197;-81
2021/03/28 03:04:25;;;;;;;5.30;1.70;;;;;;;;;;4878868;29;20356;-81
2021/03/28 03:07:00;;;;;;;6.57;1.60;;;;;;;;;;4938732;28;20233;-82
2021/03/28 03:09:38;;;;;;;3.28;1.60;;;;;;;;;;4975979;28;20169;-82
2021/03/28 03:15:21;;;;;;;10.15;2.38;;;;;;;;;;4976202;28;20260;-79
2021/03/28 03:18:06;;;;;;;2.92;1.52;;;;;;;;;;4974891;28;20176;-82
2021/03/28 03:20:38;;;;;;;9.23;2.08;;;;;;;;;;4975635;28;20174;-80
2021/03/28 03:23:16;;;;;;;17.95;3.08;;;;;;;;;;4975409;28;20185;-79
2021/03/28 03:26:00;;;;;;;19.50;2.60;;;;;;;;;;4975360;28;20289;-80
2021/03/28 03:31:48;;;;;;;4.53;1.80;;;;;;;;;;4978751;28;20176;-80
2021/03/28 03:34:41;;;;;;;4.95;1.63;;;;;;;;;;4978204;28;20182;-81
2021/03/28 03:37:10;;;;;;;5.07;1.92;;;;;;;;;;4975971;28;20309;-80
2021/03/28 03:39:42;;;;;;;2.83;1.45;;;;;;;;;;4975317;28;20174;-80
2021/03/28 03:42:23;;;;;;;5.03;1.90;;;;;;;;;;4975288;28;20177;-81
2021/03/28 03:44:52;;;;;;;5.93;2.08;;;;;;;;;;4975025;28;20224;-79
2021/03/28 03:47:22;;;;;;;4.13;1.90;;;;;;;;;;4975046;28;20229;-79
2021/03/28 03:49:48;;;;;;;3.22;1.60;;;;;;;;;;4974895;28;20190;-81
2021/03/28 03:52:30;;;;;;;2.93;1.60;;;;;;;;;;4974924;28;20173;-80
2021/03/28 03:54:56;;;;;;;3.78;1.88;;;;;;;;;;4974738;28;20926;-80
2021/03/28 03:57:31;;;;;;;4.00;1.40;;;;;;;;;;4974735;28;20182;-80
2021/03/28 03:59:57;;;;;;;2.33;1.60;;;;;;;;;;4974946;28;20416;-80
2021/03/28 04:02:26;;;;;;;5.20;2.43;;;;;;;;;;4975143;28;20562;-81
2021/03/28 04:05:07;;;;;;;6.85;1.60;;;;;;;;;;4975074;28;20414;-80
2021/03/28 04:07:51;;;;;;;3.78;2.10;;;;;;;;;;4975410;28;20168;-80
2021/03/28 04:10:35;;;;;;;7.07;1.48;;;;;;;;;;4975383;28;20169;-80
2021/03/28 04:13:01;;;;;;;4.00;1.92;;;;;;;;;;4975528;28;20228;-82
2021/03/28 04:15:35;;;;;;;3.10;1.27;;;;;;;;;;4984480;28;20617;-78
2021/03/28 04:18:09;;;;;;;4.43;1.85;;;;;;;;;;4986642;28;20413;-79
2021/03/28 04:20:54;;;;;;;4.22;1.80;;;;;;;;;;4975520;28;20170;-82
2021/03/28 04:23:32;;;;;;;7.03;1.85;;;;;;;;;;4974980;28;20181;-81
2021/03/28 04:26:08;;;;;;;3.38;1.85;;;;;;;;;;4974882;28;20644;-81
2021/03/28 04:28:54;;;;;;;3.58;1.88;;;;;;;;;;4974453;28;20173;-80
2021/03/28 04:31:26;;;;;;;11.02;1.50;;;;;;;;;;4974798;28;20255;-82
2021/03/28 04:34:05;;;;;;;4.32;1.40;;;;;;;;;;4974708;28;20172;-82
2021/03/28 04:36:30;;;;;;;9.05;1.70;;;;;;;;;;4974509;28;20241;-81
2021/03/28 04:39:20;;;;;;;3.47;2.03;;;;;;;;;;4974350;28;20597;-80
2021/03/28 04:45:08;;;;;;;3.85;2.05;;;;;;;;;;4973737;28;20171;-80
2021/03/28 04:47:49;;;;;;;4.60;2.20;;;;;;;;;;4974448;28;20554;-80
2021/03/28 04:50:33;;;;;;;4.25;2.25;;;;;;;;;;4974165;28;20175;-80
2021/03/28 04:53:18;;;;;;;5.00;1.70;;;;;;;;;;4956692;28;20173;-82
2021/03/28 04:55:44;;;;;;;2.30;1.83;;;;;;;;;;4973967;28;20504;-82
2021/03/28 05:01:16;;;;;;;3.10;1.73;;;;;;;;;;4974160;28;20431;-81
2021/03/28 05:04:01;;;;;;;3.78;1.83;;;;;;;;;;4973438;28;20331;-80
2021/03/28 05:06:36;;;;;;;5.55;2.40;;;;;;;;;;4956673;28;20221;-82
2021/03/28 05:09:20;;;;;;;4.57;1.88;;;;;;;;;;4974187;28;20694;-80
2021/03/28 05:11:58;;;;;;;3.78;1.98;;;;;;;;;;4974058;28;20249;-79
2021/03/28 05:17:34;;;;;;;2.35;1.77;;;;;;;;;;4974160;28;20655;-82
2021/03/28 05:20:18;;;;;;;7.13;1.92;;;;;;;;;;4974087;28;20420;-82
2021/03/28 05:22:58;;;;;;;2.58;2.25;;;;;;;;;;4978293;28;20207;-81
2021/03/28 05:25:27;;;;;;;2.92;1.90;;;;;;;;;;4978875;28;20279;-78
2021/03/28 05:28:12;;;;;;;9.65;2.53;;;;;;;;;;4974271;28;20181;-83
2021/03/28 05:30:56;;;;;;;3.20;1.77;;;;;;;;;;4973986;28;20258;-80
2021/03/28 05:33:34;;;;;;;2.60;1.65;;;;;;;;;;4973759;28;20181;-82
2021/03/28 05:36:24;;;;;;;8.30;2.20;;;;;;;;;;4973670;28;20568;-82
2021/03/28 05:38:56;;;;;;;4.15;1.90;;;;;;;;;;4972982;28;20197;-81
2021/03/28 05:41:34;;;;;;;7.00;1.65;;;;;;;;;;4976231;28;20576;-81
2021/03/28 05:44:19;;;;;;;3.60;1.80;;;;;;;;;;4977106;28;20177;-79
2021/03/28 05:46:58;;;;;;;2.33;1.20;;;;;;;;;;4977191;28;20207;-82
2021/03/28 05:49:24;;;;;;;4.00;1.70;;;;;;;;;;4977158;28;20196;-79
2021/03/28 05:51:53;;;;;;;5.22;1.70;;;;;;;;;;4976235;28;20173;-82
2021/03/28 05:54:19;;;;;;;2.83;1.70;;;;;;;;;;4977095;28;20175;-81
2021/03/28 05:57:03;;;;;;;3.83;2.03;;;;;;;;;;4977434;28;20288;-80
2021/03/28 05:59:48;;;;;;;3.75;2.72;;;;;;;;;;4979579;28;20421;-81
2021/03/28 06:02:14;;;;;;;6.35;2.33;;;;;;;;;;4985103;28;20633;-83
2021/03/28 06:04:55;;;;;;;7.40;2.40;;;;;;;;;;4978377;28;20171;-80
2021/03/28 06:07:27;;;;;;;5.78;2.40;;;;;;;;;;4977895;28;20428;-80
2021/03/28 06:10:02;;;;;;;6.53;2.45;;;;;;;;;;4977015;28;20225;-81
2021/03/28 06:12:34;;;;;;;3.22;1.50;;;;;;;;;;4977450;28;20163;-82
2021/03/28 06:15:00;;;;;;;3.45;1.70;;;;;;;;;;4977228;28;20182;-79
2021/03/28 06:17:44;;;;;;;4.10;1.60;;;;;;;;;;4976680;28;20179;-79
2021/03/28 06:20:29;;;;;;;2.42;1.75;;;;;;;;;;4976589;28;20413;-81
2021/03/28 06:23:04;;;;;;;4.15;1.90;;;;;;;;;;4976696;28;20174;-81
2021/03/28 06:25:49;;;;;;;4.22;1.98;;;;;;;;;;4977133;28;20281;-81
2021/03/28 06:31:21;;;;;;;3.70;1.83;;;;;;;;;;4977584;28;20177;-80
2021/03/28 06:34:06;;;;;;;5.70;2.42;;;;;;;;;;4976820;28;20180;-80
2021/03/28 06:36:35;;;;;;;3.63;2.67;;;;;;;;;;4976805;28;20581;-81
2021/03/28 06:39:16;;;;;;;4.05;2.47;;;;;;;;;;4975955;28;20622;-79
2021/03/28 06:41:58;;;;;;;2.35;1.80;;;;;;;;;;4975727;28;20179;-80
2021/03/28 06:47:46;;;;;;;4.70;1.70;;;;;;;;;;4975862;28;20921;-80
2021/03/28 06:50:27;;;;;;;4.40;1.83;;;;;;;;;;4975903;28;20526;-79
2021/03/28 06:53:02;;;;;;;4.33;1.60;;;;;;;;;;4976156;28;20412;-80
2021/03/28 06:55:46;;;;;;;2.23;1.57;;;;;;;;;;4976714;28;20413;-82
2021/03/28 06:58:24;;;;;;;3.40;2.07;;;;;;;;;;4975692;28;20793;-81
2021/03/28 07:01:16;;;;;;;4.67;2.03;;;;;;;;;;4959083;28;20460;-79
2021/03/28 07:03:45;;;;;;;5.17;1.77;;;;;;;;;;4938890;28;20451;-80
2021/03/28 07:06:44;;;;;;;2.93;1.90;;;;;;;;;;4958144;28;20992;-79
2021/03/28 07:09:16;;;;;;;4.03;1.53;;;;;;;;;;4922929;28;20446;-81
2021/03/28 07:11:52;;;;;;;5.00;3.60;;;;;;;;;;4975515;28;20835;-79
2021/03/28 07:14:37;;;;;;;4.77;2.33;;;;;;;;;;4975559;28;20424;-79
2021/03/28 07:17:21;;;;;;;4.10;1.90;;;;;;;;;;4975517;28;20438;-80
2021/03/28 07:20:00;;;;;;;7.80;2.30;;;;;;;;;;4975173;28;20418;-80
2021/03/28 07:22:25;;;;;;;5.37;2.03;;;;;;;;;;4975138;28;20391;-78
2021/03/28 07:25:07;;;;;;;5.43;2.00;;;;;;;;;;4974956;28;20465;-82
2021/03/28 07:27:49;;;;;;;2.50;1.50;;;;;;;;;;4975547;28;20508;-81
2021/03/28 07:30:24;;;;;;;3.93;2.13;;;;;;;;;;4975688;28;20420;-79
2021/03/28 07:33:05;;;;;;;3.97;1.40;;;;;;;;;;4975914;28;20412;-80
2021/03/28 07:36:01;;;;;;;5.77;2.40;;;;;;;;;;4975436;28;20458;-81
2021/03/28 07:38:39;;;;;;;4.43;1.93;;;;;;;;;;4955501;28;20903;-83
2021/03/28 07:41:17;;;;;;;5.90;1.53;;;;;;;;;;4975613;28;20425;-79
2021/03/28 07:47:03;;;;;;;4.37;1.77;;;;;;;;;;4975483;28;20479;-79
2021/03/28 07:49:48;;;;;;;2.40;1.50;;;;;;;;;;4957966;28;20492;-80
2021/03/28 07:52:20;;;;;;;4.03;1.90;;;;;;;;;;4979159;28;20905;-80
2021/03/28 07:54:49;;;;;;;4.50;1.60;;;;;;;;;;4977870;28;20906;-84
2021/03/28 07:57:24;;;;;;;2.23;1.73;;;;;;;;;;4976230;28;20423;-83
2021/03/28 08:03:12;;;;;;;5.30;1.93;;;;;;;;;;4974641;28;20470;-80
2021/03/28 08:05:57;;;;;;;6.37;2.63;;;;;;;;;;4974962;28;20471;-81
2021/03/28 08:08:32;;;;;;;3.40;1.60;;;;;;;;;;4974735;28;20429;-81
2021/03/28 08:11:01;;;;;;;4.20;1.57;;;;;;;;;;4975041;28;20414;-81
2021/03/28 08:19:52;;;;;;;3.97;1.17;;;;;;;;;;4974586;28;20473;-81
2021/03/28 08:22:25;;;;;;;2.63;1.60;;;;;;;;;;4974832;28;20426;-82
2021/03/28 08:25:00;;;;;;;4.33;1.40;;;;;;;;;;4974653;28;20438;-82
2021/03/28 08:27:35;;;;;;;2.70;1.80;;;;;;;;;;4974481;28;20469;-81
2021/03/28 08:30:04;;;;;;;4.37;1.63;;;;;;;;;;4974594;28;20426;-80
2021/03/28 08:32:49;;;;;;;4.20;1.80;;;;;;;;;;4974660;28;20427;-80
2021/03/28 08:35:34;;;;;;;3.90;1.80;;;;;;;;;;4973898;28;20450;-80
2021/03/28 08:38:19;;;;;;;1.80;1.47;;;;;;;;;;4956830;28;20855;-81
2021/03/28 08:41:03;;;;;;;2.60;1.73;;;;;;;;;;4974084;28;20421;-81
2021/03/28 08:43:32;;;;;;;3.60;1.50;;;;;;;;;;4974071;28;20419;-79
2021/03/28 08:46:01;;;;;;;5.50;2.07;;;;;;;;;;4974128;28;20466;-80
2021/03/28 08:48:46;;;;;;;3.77;1.60;;;;;;;;;;4973996;28;20494;-81
2021/03/28 08:51:20;;;;;;;4.13;1.50;;;;;;;;;;4974315;28;20423;-81
2021/03/28 08:53:46;;;;;;;2.80;1.63;;;;;;;;;;4974171;28;20440;-80
2021/03/28 08:56:18;;;;;;;2.03;1.30;;;;;;;;;;4973811;28;20762;-79
2021/03/28 09:01:48;;;;;;;4.27;1.57;;;;;;;;;;4973921;28;20414;-80
2021/03/28 09:04:14;;;;;;;5.90;1.50;;;;;;;;;;4973551;28;20418;-81
2021/03/28 09:06:51;;;;;;;4.33;1.50;;;;;;;;;;4973643;28;20462;-80
2021/03/28 09:09:40;;;;;;;4.00;1.70;;;;;;;;;;4973813;28;20418;-79
2021/03/28 09:12:25;;;;;;;3.73;1.30;;;;;;;;;;4973504;28;20423;-81
2021/03/28 09:17:54;;;;;;;3.43;1.20;;;;;;;;;;4973531;28;20500;-79
2021/03/28 09:20:45;;;;;;;2.57;1.70;;;;;;;;;;4973396;28;20442;-81
2021/03/28 09:23:16;;;;;;;3.17;1.47;;;;;;;;;;4973440;28;20497;-83
2021/03/28 09:26:12;;;;;;;4.37;1.33;;;;;;;;;;4956062;28;20842;-83
2021/03/28 09:28:40;;;;;;;5.00;1.97;;;;;;;;;;4888495;28;20522;-85
2021/03/28 09:34:22;;;;;;;3.20;1.50;;;;;;;;;;4974018;28;20466;-81
2021/03/28 09:36:54;;;;;;;3.00;1.27;;;;;;;;;;4973637;28;20564;-86
2021/03/28 09:39:20;;;;;;;2.43;1.30;;;;;;;;;;4973625;28;20862;-82
2021/03/28 09:42:02;;;;;;;1.70;1.30;;;;;;;;;;4973970;28;20450;-83
2021/03/28 09:44:35;;;;;;;3.60;1.30;;;;;;;;;;4974485;28;20441;-83
2021/03/28 09:47:19;;;;;;;4.33;1.40;;;;;;;;;;4983655;28;20501;-79
2021/03/28 09:50:06;;;;;;;4.40;1.47;;;;;;;;;;4983823;28;20419;-84
2021/03/28 09:52:51;;;;;;;3.40;1.70;;;;;;;;;;4958731;28;20461;-87
2021/03/28 09:55:39;;;;;;;2.10;1.30;;;;;;;;;;4974841;28;20515;-87
2021/03/28 09:58:13;;;;;;;5.17;1.57;;;;;;;;;;4974833;28;20940;-90
2021/03/28 10:00:42;;;;;;;1.70;1.30;;;;;;;;;;4973614;28;20956;-82
2021/03/28 10:03:18;;;;;;;1.70;1.40;;;;;;;;;;4973178;28;20423;-81
2021/03/28 10:05:44;;;;;;;3.17;1.77;;;;;;;;;;4973181;28;20476;-80
2021/03/28 10:08:12;;;;;;;3.77;1.60;;;;;;;;;;4973417;28;20514;-81
2021/03/28 10:10:38;;;;;;;2.90;1.30;;;;;;;;;;4973269;28;20810;-80
2021/03/28 10:13:23;;;;;;;3.60;1.23;;;;;;;;;;4956776;28;20465;-82
2021/03/28 10:16:09;;;;;;;2.47;1.47;;;;;;;;;;4955761;28;20521;-80
2021/03/28 10:18:44;;;;;;;2.67;1.30;;;;;;;;;;4956149;28;20827;-81
2021/03/28 10:21:22;;;;;;;2.90;1.80;;;;;;;;;;4973081;28;20429;-81
2021/03/28 10:23:48;;;;;;;2.77;1.53;;;;;;;;;;4972898;28;20823;-80
2021/03/28 10:26:17;;;;;;;7.10;1.40;;;;;;;;;;4973682;28;20466;-80
2021/03/28 10:29:02;;;;;;;4.63;1.50;;;;;;;;;;4976326;28;20415;-80
2021/03/28 10:31:46;;;;;;;2.87;1.23;;;;;;;;;;4976338;28;20419;-80
2021/03/28 10:34:15;;;;;;;3.63;1.07;;;;;;;;;;4976018;28;20452;-81
2021/03/28 10:36:50;;;;;;;2.13;1.23;;;;;;;;;;4976070;28;20826;-83
2021/03/28 10:39:40;;;;;;;3.77;1.80;;;;;;;;;;4976051;28;20496;-80
2021/03/28 10:42:25;;;;;;;2.20;1.43;;;;;;;;;;4976155;28;20446;-79
2021/03/28 10:48:00;;;;;;;2.77;1.40;;;;;;;;;;4976238;28;20592;-81
2021/03/28 10:50:47;;;;;;;3.77;1.70;;;;;;;;;;4976915;28;20893;-80
2021/03/28 10:53:31;;;;;;;2.07;1.47;;;;;;;;;;4928361;28;20434;-81
2021/03/28 10:56:16;;;;;;;3.13;1.23;;;;;;;;;;4976568;28;20406;-81
2021/03/28 10:58:57;;;;;;;4.77;1.30;;;;;;;;;;4975888;28;20427;-79
2021/03/28 11:04:45;;;;;;;4.33;1.30;;;;;;;;;;4976110;28;20410;-79
2021/03/28 11:07:23;;;;;;;2.40;1.30;;;;;;;;;;4976333;28;20844;-78
2021/03/28 11:10:09;;;;;;;1.57;1.47;;;;;;;;;;4958844;28;20470;-78
2021/03/28 11:12:41;;;;;;;3.67;1.80;;;;;;;;;;4948903;28;20438;-78
2021/03/28 11:15:11;;;;;;;2.63;1.47;;;;;;;;;;4975931;28;20477;-78
2021/03/28 11:17:52;;;;;;;2.93;1.13;;;;;;;;;;4974733;28;20411;-77
2021/03/28 11:20:18;;;;;;;3.73;1.80;;;;;;;;;;4972878;28;20502;-78
2021/03/28 11:22:50;;;;;;;3.07;1.73;;;;;;;;;;4972627;28;20458;-78
2021/03/28 11:25:18;;;;;;;7.43;1.93;;;;;;;;;;4973830;28;20426;-78
2021/03/28 11:27:56;;;;;;;2.60;1.43;;;;;;;;;;4973882;28;20897;-78
2021/03/28 11:30:40;;;;;;;2.90;2.00;;;;;;;;;;4973997;28;20426;-79
2021/03/28 11:33:25;;;;;;;2.80;1.60;;;;;;;;;;4974494;28;20414;-78
2021/03/28 11:35:57;;;;;;;3.77;2.30;;;;;;;;;;4974212;28;20581;-79
2021/03/28 11:38:23;;;;;;;3.27;1.80;;;;;;;;;;4973605;28;20415;-78
2021/03/28 11:40:51;;;;;;;2.20;1.40;;;;;;;;;;4974944;28;20437;-77
2021/03/28 11:43:23;;;;;;;5.33;2.07;;;;;;;;;;4975297;28;20758;-78
2021/03/28 11:46:14;;;;;;;3.43;1.80;;;;;;;;;;4978678;28;20509;-77
2021/03/28 11:48:48;;;;;;;4.30;1.90;;;;;;;;;;4931479;28;20983;-78
2021/03/28 11:51:17;;;;;;;5.47;1.60;;;;;;;;;;4974744;28;20417;-78
2021/03/28 11:53:43;;;;;;;2.70;1.57;;;;;;;;;;4974646;28;20411;-77
2021/03/28 11:56:28;;;;;;;4.83;1.43;;;;;;;;;;4974625;28;20443;-77
2021/03/28 11:59:00;;;;;;;4.53;1.63;;;;;;;;;;4973583;28;20418;-77
2021/03/28 12:01:45;;;;;;;4.67;1.87;;;;;;;;;;4974131;28;20415;-78
2021/03/28 12:04:30;;;;;;;9.33;1.40;;;;;;;;;;4974307;28;20489;-78
2021/03/28 12:06:59;;;;;;;3.93;1.60;;;;;;;;;;4974631;28;20569;-78
2021/03/28 12:09:27;;;;;;;3.63;1.47;;;;;;;;;;4974575;28;20414;-78
2021/03/28 12:11:54;;;;;;;4.73;1.10;;;;;;;;;;4974614;28;20855;-78
2021/03/28 12:14:27;;;;;;;2.83;1.40;;;;;;;;;;4974276;28;20422;-79
2021/03/28 12:17:11;;;;;;;4.07;1.40;;;;;;;;;;4974437;28;20549;-79
2021/03/28 12:19:56;;;;;;;5.90;2.23;;;;;;;;;;4974366;28;20422;-79
2021/03/28 12:22:22;;;;;;;3.30;1.33;;;;;;;;;;4974371;28;20437;-78
2021/03/28 12:24:57;;;;;;;1.93;1.10;;;;;;;;;;4974309;28;20446;-79
2021/03/28 12:27:43;;;;;;;3.17;1.60;;;;;;;;;;4974133;28;20465;-79
2021/03/28 12:33:19;;;;;;;4.53;1.67;;;;;;;;;;4969612;28;20851;-79
2021/03/28 12:35:48;;;;;;;2.20;1.77;;;;;;;;;;4973740;28;20475;-79
2021/03/28 12:38:29;;;;;;;2.93;1.43;;;;;;;;;;4973952;28;20411;-79
2021/03/28 12:41:16;;;;;;;2.93;1.60;;;;;;;;;;4956564;28;20430;-78
2021/03/28 12:43:44;;;;;;;4.20;1.63;;;;;;;;;;4973781;28;20504;-78
2021/03/28 12:49:34;;;;;;;2.53;1.50;;;;;;;;;;4973537;28;20418;-79
2021/03/28 12:52:03;;;;;;;6.27;1.37;;;;;;;;;;4973472;28;20466;-78
2021/03/28 12:54:31;;;;;;;2.40;1.43;;;;;;;;;;4973525;28;20419;-78
2021/03/28 12:57:01;;;;;;;4.00;1.30;;;;;;;;;;4973589;28;20753;-78
2021/03/28 12:59:32;;;;;;;3.33;1.73;;;;;;;;;;4973431;28;20502;-78
2021/03/28 13:05:07;;;;;;;6.53;1.83;;;;;;;;;;4973429;28;20607;-78
2021/03/28 13:07:44;;;;;;;4.63;1.27;;;;;;;;;;4956027;28;20439;-78
2021/03/28 13:10:20;;;;;;;2.80;1.83;;;;;;;;;;4973519;28;20419;-79
2021/03/28 13:12:46;;;;;;;4.53;1.53;;;;;;;;;;4973389;28;20764;-79
2021/03/28 13:15:14;;;;;;;2.70;1.50;;;;;;;;;;4973407;28;20902;-77
2021/03/28 13:20:47;;;;;;;3.80;1.90;;;;;;;;;;4973445;28;20925;-78
2021/03/28 13:23:22;;;;;;;7.30;1.90;;;;;;;;;;4973299;28;20502;-78
2021/03/28 13:26:05;;;;;;;3.33;1.73;;;;;;;;;;4973407;28;20897;-78
2021/03/28 13:28:31;;;;;;;1.80;1.27;;;;;;;;;;4973167;28;20407;-78
2021/03/28 13:31:13;;;;;;;5.33;1.40;;;;;;;;;;4973375;28;20505;-77
2021/03/28 13:33:40;;;;;;;4.13;1.57;;;;;;;;;;4973249;28;20411;-78
2021/03/28 13:36:27;;;;;;;4.00;1.87;;;;;;;;;;4973109;28;20482;-79
2021/03/28 13:39:14;;;;;;;2.97;1.13;;;;;;;;;;4973158;28;20418;-78
2021/03/28 13:41:41;;;;;;;2.80;1.30;;;;;;;;;;4973185;28;20429;-78
2021/03/28 13:44:20;;;;;;;4.60;1.37;;;;;;;;;;4973474;28;20515;-78
2021/03/28 13:46:57;;;;;;;4.77;1.20;;;;;;;;;;4976286;28;20794;-78
2021/03/28 13:49:28;;;;;;;2.80;1.60;;;;;;;;;;4972601;28;20417;-78
2021/03/28 13:52:08;;;;;;;1.70;1.27;;;;;;;;;;4973043;28;20443;-79
2021/03/28 13:54:35;;;;;;;2.10;1.23;;;;;;;;;;4972516;28;20498;-77
2021/03/28 13:57:02;;;;;;;1.77;1.60;;;;;;;;;;4972313;28;20450;-78
2021/03/28 13:59:34;;;;;;;1.77;1.27;;;;;;;;;;4972538;28;20415;-81
2021/03/28 14:02:13;;;;;;;2.83;1.30;;;;;;;;;;4974474;28;20427;-77
2021/03/28 14:04:51;;;;;;;1.83;1.23;;;;;;;;;;4976302;28;20407;-81
2021/03/28 14:07:29;;;;;;;2.00;1.07;;;;;;;;;;4958762;28;20535;-80
2021/03/28 14:10:09;;;;;;;1.40;0.90;;;;;;;;;;4976277;28;20832;-80
2021/03/28 14:12:46;;;;;;;2.10;1.00;;;;;;;;;;4976337;28;20438;-80
2021/03/28 14:15:15;;;;;;;3.63;1.80;;;;;;;;;;4958821;28;20471;-80
2021/03/28 14:17:42;;;;;;;2.20;2.00;;;;;;;;;;4975930;28;20433;-79
2021/03/28 14:20:23;;;;;;;2.17;1.53;;;;;;;;;;4975712;28;20429;-78
2021/03/28 14:22:55;;;;;;;3.03;1.90;;;;;;;;;;4975723;28;20414;-78
2021/03/28 14:25:33;;;;;;;4.53;2.10;;;;;;;;;;4975601;28;20484;-76
2021/03/28 14:28:19;;;;;;;3.23;1.43;;;;;;;;;;4975930;28;20430;-77
2021/03/28 14:30:45;;;;;;;4.70;1.60;;;;;;;;;;4975654;28;20410;-78
2021/03/28 14:33:20;;;;;;;2.07;1.10;;;;;;;;;;4975516;28;20415;-78
2021/03/28 14:35:58;;;;;;;2.37;1.30;;;;;;;;;;4975399;28;20470;-78
2021/03/28 14:38:34;;;;;;;2.27;1.30;;;;;;;;;;4975750;28;20426;-79
2021/03/28 14:41:09;;;;;;;3.77;1.77;;;;;;;;;;4976052;28;21060;-78
2021/03/28 14:43:41;;;;;;;2.07;1.17;;;;;;;;;;4975820;28;20410;-83
2021/03/28 14:49:18;;;;;;;9.40;1.53;;;;;;;;;;4975261;28;20465;-78
2021/03/28 14:51:49;;;;;;;3.30;1.47;;;;;;;;;;4975677;28;20403;-80
2021/03/28 14:54:36;;;;;;;3.50;1.80;;;;;;;;;;4975264;28;20439;-80
2021/03/28 14:57:06;;;;;;;2.40;1.23;;;;;;;;;;4975011;28;20411;-78
2021/03/28 14:59:35;;;;;;;2.67;1.80;;;;;;;;;;4975026;28;20418;-79
2021/03/28 15:05:21;;;;;;;1.30;1.20;;;;;;;;;;4974718;28;20409;-78
2021/03/28 15:07:56;;;;;;;2.60;1.40;;;;;;;;;;4975131;28;20521;-76
2021/03/28 15:10:26;;;;;;;3.30;1.60;;;;;;;;;;4975542;28;20419;-78
2021/03/28 15:13:00;;;;;;;3.73;1.40;;;;;;;;;;4975066;28;20422;-78
2021/03/28 15:15:45;;;;;;;2.03;1.30;;;;;;;;;;4974390;28;20406;-74
2021/03/28 15:21:22;;;;;;;2.90;1.50;;;;;;;;;;4975055;28;20442;-74
2021/03/28 15:24:07;;;;;;;2.50;1.40;;;;;;;;;;4957765;28;20438;-75
2021/03/28 15:26:33;;;;;;;2.30;1.20;;;;;;;;;;4957242;28;20948;-76
2021/03/28 15:29:05;;;;;;;3.33;1.53;;;;;;;;;;4974526;28;20426;-76
2021/03/28 15:31:34;;;;;;;2.00;1.00;;;;;;;;;;4957462;28;20925;-75
2021/03/28 15:34:19;;;;;;;3.10;2.00;;;;;;;;;;4957848;28;20587;-75
2021/03/28 15:36:57;;;;;;;4.43;1.47;;;;;;;;;;4974752;28;20501;-75
2021/03/28 15:39:23;;;;;;;1.20;1.10;;;;;;;;;;4957323;28;20517;-76
2021/03/28 15:41:58;;;;;;;1.97;1.47;;;;;;;;;;4975037;28;20450;-76
2021/03/28 15:44:33;;;;;;;2.07;1.70;;;;;;;;;;4974612;28;20417;-77
2021/03/28 15:47:08;;;;;;;3.63;1.57;;;;;;;;;;4974258;28;20532;-78
2021/03/28 15:49:53;;;;;;;2.43;1.57;;;;;;;;;;4974643;28;20410;-78
2021/03/28 15:52:42;;;;;;;1.17;1.00;;;;;;;;;;4974338;28;20486;-75
2021/03/28 15:55:26;;;;;;;2.93;1.67;;;;;;;;;;4974582;28;20407;-76
2021/03/28 15:58:11;;;;;;;2.10;1.70;;;;;;;;;;4974334;28;20770;-77
2021/03/28 16:00:55;;;;;;;5.87;1.60;;;;;;;;;;4974247;28;20419;-77
2021/03/28 16:03:36;;;;;;;2.87;1.73;;;;;;;;;;4974094;28;20435;-77
2021/03/28 16:06:12;;;;;;;2.00;1.27;;;;;;;;;;4974198;28;20559;-76
2021/03/28 16:08:50;;;;;;;3.90;1.73;;;;;;;;;;4973807;28;20457;-76
2021/03/28 16:11:35;;;;;;;2.13;1.27;;;;;;;;;;4974478;28;20502;-77
2021/03/28 16:14:15;;;;;;;2.10;1.20;;;;;;;;;;4973984;28;20422;-77
2021/03/28 16:20:00;;;;;;;1.90;1.80;;;;;;;;;;4973988;28;20413;-77
2021/03/28 16:22:38;;;;;;;2.20;1.67;;;;;;;;;;4956005;28;20422;-78
2021/03/28 16:25:19;;;;;;;3.43;1.10;;;;;;;;;;4973261;28;20415;-76
2021/03/28 16:28:01;;;;;;;4.30;1.40;;;;;;;;;;4973732;28;20481;-78
2021/03/28 16:30:31;;;;;;;3.10;1.40;;;;;;;;;;4973662;28;20414;-79
2021/03/28 16:36:18;;;;;;;3.33;1.50;;;;;;;;;;4973528;28;20608;-77
2021/03/28 16:39:02;;;;;;;3.80;1.57;;;;;;;;;;4973574;28;20399;-78
2021/03/28 16:41:47;;;;;;;4.57;1.50;;;;;;;;;;4956395;28;20469;-77
2021/03/28 16:44:19;;;;;;;1.80;1.57;;;;;;;;;;4973023;28;20473;-77
2021/03/28 16:46:51;;;;;;;5.70;1.53;;;;;;;;;;4972896;28;20466;-77
2021/03/28 16:52:24;;;;;;;2.17;1.60;;;;;;;;;;4973017;28;20410;-77
2021/03/28 16:54:51;;;;;;;3.60;1.47;;;;;;;;;;4973206;28;20418;-77
2021/03/28 16:57:23;;;;;;;3.93;1.90;;;;;;;;;;4973533;28;20898;-77
2021/03/28 16:59:54;;;;;;;8.70;1.53;;;;;;;;;;4973534;28;20414;-77
2021/03/28 17:02:29;;;;;;;7.60;1.70;;;;;;;;;;4973273;28;20928;-77
2021/03/28 17:05:00;;;;;;;3.87;1.40;;;;;;;;;;4973134;28;20432;-77
2021/03/28 17:07:28;;;;;;;3.60;1.87;;;;;;;;;;4973204;28;20551;-77